sensor_id;sensor_type;location;lat;lon;timestamp;temperature;humidity
7738;DHT22;29398;45.328;5.558;2023-11-19T00:00:05;8.80;99.90
7738;DHT22;29398;45.328;5.558;2023-11-19T00:01:11;8.80;99.90
7738;DHT22;29398;45.328;5.558;2023-11-19T00:02:12;8.80;99.90
7738;DHT22;29398;45.328;5.558;2023-11-19T00:03:14;8.80;99.90
7738;DHT22;29398;45.328;5.558;2023-11-19T00:04:15;8.80;99.90
7738;DHT22;29398;45.328;5.558;2023-11-19T00:05:18;8.80;99.90
7738;DHT22;29398;45.328;5.558;2023-11-19T00:06:19;8.70;99.90
7738;DHT22;29398;45.328;5.558;2023-11-19T00:07:20;8.70;99.90
7738;DHT22;29398;45.328;5.558;2023-11-19T00:08:22;8.60;99.90
7738;DHT22;29398;45.328;5.558;2023-11-19T00:09:25;8.70;99.90
7738;DHT22;29398;45.328;5.558;2023-11-19T00:10:27;8.70;99.90
7738;DHT22;29398;45.328;5.558;2023-11-19T00:11:28;8.60;99.90
7738;DHT22;29398;45.328;5.558;2023-11-19T00:12:32;8.60;99.90
7738;DHT22;29398;45.328;5.558;2023-11-19T00:13:33;8.60;99.90
7738;DHT22;29398;45.328;5.558;2023-11-19T00:14:35;8.60;99.90
7738;DHT22;29398;45.328;5.558;2023-11-19T00:15:36;8.50;99.90
7738;DHT22;29398;45.328;5.558;2023-11-19T00:16:38;8.50;99.90
7738;DHT22;29398;45.328;5.558;2023-11-19T00:17:40;8.50;99.90
7738;DHT22;29398;45.328;5.558;2023-11-19T00:18:45;8.50;99.90
7738;DHT22;29398;45.328;5.558;2023-11-19T00:19:46;8.50;99.90
7738;DHT22;29398;45.328;5.558;2023-11-19T00:20:47;8.40;99.90
7738;DHT22;29398;45.328;5.558;2023-11-19T00:21:49;8.50;99.90
7738;DHT22;29398;45.328;5.558;2023-11-19T00:22:50;8.40;99.90
7738;DHT22;29398;45.328;5.558;2023-11-19T00:23:52;8.40;99.90
7738;DHT22;29398;45.328;5.558;2023-11-19T00:24:53;8.40;99.90
7738;DHT22;29398;45.328;5.558;2023-11-19T00:25:54;8.40;99.90
7738;DHT22;29398;45.328;5.558;2023-11-19T00:26:57;8.40;99.90
7738;DHT22;29398;45.328;5.558;2023-11-19T00:27:59;8.40;99.90
7738;DHT22;29398;45.328;5.558;2023-11-19T00:29:01;8.40;99.90
7738;DHT22;29398;45.328;5.558;2023-11-19T00:30:02;8.40;99.90
7738;DHT22;29398;45.328;5.558;2023-11-19T00:31:05;8.40;99.90
7738;DHT22;29398;45.328;5.558;2023-11-19T00:32:08;8.40;99.90
7738;DHT22;29398;45.328;5.558;2023-11-19T00:33:09;8.40;99.90
7738;DHT22;29398;45.328;5.558;2023-11-19T00:34:11;8.40;99.90
7738;DHT22;29398;45.328;5.558;2023-11-19T00:35:12;8.40;99.90
7738;DHT22;29398;45.328;5.558;2023-11-19T00:36:14;8.40;99.90
7738;DHT22;29398;45.328;5.558;2023-11-19T00:37:17;8.40;99.90
7738;DHT22;29398;45.328;5.558;2023-11-19T00:38:18;8.40;99.90
7738;DHT22;29398;45.328;5.558;2023-11-19T00:39:20;8.40;99.90
7738;DHT22;29398;45.328;5.558;2023-11-19T00:40:22;8.40;99.90
7738;DHT22;29398;45.328;5.558;2023-11-19T00:41:24;8.40;99.90
7738;DHT22;29398;45.328;5.558;2023-11-19T00:42:26;8.30;99.90
7738;DHT22;29398;45.328;5.558;2023-11-19T00:43:30;8.30;99.90
7738;DHT22;29398;45.328;5.558;2023-11-19T00:44:31;8.30;99.90
7738;DHT22;29398;45.328;5.558;2023-11-19T00:45:33;8.30;99.90
7738;DHT22;29398;45.328;5.558;2023-11-19T00:46:34;8.30;99.90
7738;DHT22;29398;45.328;5.558;2023-11-19T00:47:36;8.30;99.90
7738;DHT22;29398;45.328;5.558;2023-11-19T00:48:37;8.30;99.90
7738;DHT22;29398;45.328;5.558;2023-11-19T00:49:39;8.30;99.90
7738;DHT22;29398;45.328;5.558;2023-11-19T00:50:40;8.30;99.90
7738;DHT22;29398;45.328;5.558;2023-11-19T00:51:45;8.30;99.90
7738;DHT22;29398;45.328;5.558;2023-11-19T00:52:46;8.30;99.90
7738;DHT22;29398;45.328;5.558;2023-11-19T00:53:48;8.30;99.90
7738;DHT22;29398;45.328;5.558;2023-11-19T00:54:49;8.30;99.90
7738;DHT22;29398;45.328;5.558;2023-11-19T00:55:50;8.30;99.90
7738;DHT22;29398;45.328;5.558;2023-11-19T00:56:52;8.30;99.90
7738;DHT22;29398;45.328;5.558;2023-11-19T00:57:53;8.30;99.90
7738;DHT22;29398;45.328;5.558;2023-11-19T00:58:58;8.30;99.90
7738;DHT22;29398;45.328;5.558;2023-11-19T01:00:00;8.30;99.90
7738;DHT22;29398;45.328;5.558;2023-11-19T01:01:01;8.20;99.90
7738;DHT22;29398;45.328;5.558;2023-11-19T01:02:04;8.20;99.90
7738;DHT22;29398;45.328;5.558;2023-11-19T01:03:06;8.20;99.90
7738;DHT22;29398;45.328;5.558;2023-11-19T01:04:09;8.20;99.90
7738;DHT22;29398;45.328;5.558;2023-11-19T01:05:11;8.20;99.90
7738;DHT22;29398;45.328;5.558;2023-11-19T01:06:14;8.20;99.90
7738;DHT22;29398;45.328;5.558;2023-11-19T01:07:16;8.10;99.90
7738;DHT22;29398;45.328;5.558;2023-11-19T01:08:18;8.20;99.90
7738;DHT22;29398;45.328;5.558;2023-11-19T01:09:19;8.20;99.90
7738;DHT22;29398;45.328;5.558;2023-11-19T01:10:21;8.10;99.90
7738;DHT22;29398;45.328;5.558;2023-11-19T01:11:23;8.10;99.90
7738;DHT22;29398;45.328;5.558;2023-11-19T01:12:25;8.10;99.90
7738;DHT22;29398;45.328;5.558;2023-11-19T01:13:26;8.10;99.90
7738;DHT22;29398;45.328;5.558;2023-11-19T01:14:30;8.10;99.90
7738;DHT22;29398;45.328;5.558;2023-11-19T01:15:31;8.10;99.90
7738;DHT22;29398;45.328;5.558;2023-11-19T01:16:33;8.10;99.90
7738;DHT22;29398;45.328;5.558;2023-11-19T01:17:34;8.00;99.90
7738;DHT22;29398;45.328;5.558;2023-11-19T01:18:38;8.10;99.90
7738;DHT22;29398;45.328;5.558;2023-11-19T01:19:39;8.10;99.90
7738;DHT22;29398;45.328;5.558;2023-11-19T01:20:40;8.10;99.90
7738;DHT22;29398;45.328;5.558;2023-11-19T01:21:42;8.10;99.90
7738;DHT22;29398;45.328;5.558;2023-11-19T01:22:44;8.00;99.90
7738;DHT22;29398;45.328;5.558;2023-11-19T01:23:45;8.00;99.90
7738;DHT22;29398;45.328;5.558;2023-11-19T01:24:47;8.10;99.90
7738;DHT22;29398;45.328;5.558;2023-11-19T01:25:48;8.10;99.90
7738;DHT22;29398;45.328;5.558;2023-11-19T01:26:49;8.10;99.90
7738;DHT22;29398;45.328;5.558;2023-11-19T01:27:52;8.00;99.90
7738;DHT22;29398;45.328;5.558;2023-11-19T01:28:53;8.00;99.90
7738;DHT22;29398;45.328;5.558;2023-11-19T01:29:57;8.10;99.90
7738;DHT22;29398;45.328;5.558;2023-11-19T01:30:58;8.10;99.90
7738;DHT22;29398;45.328;5.558;2023-11-19T01:32:00;8.10;99.90
7738;DHT22;29398;45.328;5.558;2023-11-19T01:33:01;8.10;99.90
7738;DHT22;29398;45.328;5.558;2023-11-19T01:34:03;8.10;99.90
7738;DHT22;29398;45.328;5.558;2023-11-19T01:35:04;8.10;99.90
7738;DHT22;29398;45.328;5.558;2023-11-19T01:36:07;8.10;99.90
7738;DHT22;29398;45.328;5.558;2023-11-19T01:37:09;8.10;99.90
7738;DHT22;29398;45.328;5.558;2023-11-19T01:38:12;8.10;99.90
7738;DHT22;29398;45.328;5.558;2023-11-19T01:39:13;8.10;99.90
7738;DHT22;29398;45.328;5.558;2023-11-19T01:40:20;8.10;99.90
7738;DHT22;29398;45.328;5.558;2023-11-19T01:41:21;8.10;99.90
7738;DHT22;29398;45.328;5.558;2023-11-19T01:42:23;8.10;99.90
7738;DHT22;29398;45.328;5.558;2023-11-19T01:43:33;8.10;99.90
7738;DHT22;29398;45.328;5.558;2023-11-19T01:44:35;8.10;99.90
7738;DHT22;29398;45.328;5.558;2023-11-19T01:45:39;8.10;99.90
7738;DHT22;29398;45.328;5.558;2023-11-19T01:46:43;8.10;99.90
7738;DHT22;29398;45.328;5.558;2023-11-19T01:47:44;8.10;99.90
7738;DHT22;29398;45.328;5.558;2023-11-19T01:48:47;8.00;99.90
7738;DHT22;29398;45.328;5.558;2023-11-19T01:49:48;8.00;99.90
7738;DHT22;29398;45.328;5.558;2023-11-19T01:50:49;8.00;99.90
7738;DHT22;29398;45.328;5.558;2023-11-19T01:51:53;8.10;99.90
7738;DHT22;29398;45.328;5.558;2023-11-19T01:52:54;8.10;99.90
7738;DHT22;29398;45.328;5.558;2023-11-19T01:53:58;8.00;99.90
7738;DHT22;29398;45.328;5.558;2023-11-19T01:54:59;8.00;99.90
7738;DHT22;29398;45.328;5.558;2023-11-19T01:56:02;8.00;99.90
7738;DHT22;29398;45.328;5.558;2023-11-19T01:57:04;8.00;99.90
7738;DHT22;29398;45.328;5.558;2023-11-19T01:58:05;8.00;99.90
7738;DHT22;29398;45.328;5.558;2023-11-19T01:59:08;8.10;99.90
7738;DHT22;29398;45.328;5.558;2023-11-19T02:00:11;8.10;99.90
7738;DHT22;29398;45.328;5.558;2023-11-19T02:01:16;8.00;99.90
7738;DHT22;29398;45.328;5.558;2023-11-19T02:02:18;8.00;99.90
7738;DHT22;29398;45.328;5.558;2023-11-19T02:03:21;8.00;99.90
7738;DHT22;29398;45.328;5.558;2023-11-19T02:04:23;8.00;99.90
7738;DHT22;29398;45.328;5.558;2023-11-19T02:05:25;8.00;99.90
7738;DHT22;29398;45.328;5.558;2023-11-19T02:06:28;8.00;99.90
7738;DHT22;29398;45.328;5.558;2023-11-19T02:07:29;7.90;99.90
7738;DHT22;29398;45.328;5.558;2023-11-19T02:08:31;8.00;99.90
7738;DHT22;29398;45.328;5.558;2023-11-19T02:09:32;8.00;99.90
7738;DHT22;29398;45.328;5.558;2023-11-19T02:10:35;7.90;99.90
7738;DHT22;29398;45.328;5.558;2023-11-19T02:11:36;7.90;99.90
7738;DHT22;29398;45.328;5.558;2023-11-19T02:12:40;7.90;99.90
7738;DHT22;29398;45.328;5.558;2023-11-19T02:13:43;7.90;99.90
7738;DHT22;29398;45.328;5.558;2023-11-19T02:14:45;7.90;99.90
7738;DHT22;29398;45.328;5.558;2023-11-19T02:15:46;7.90;99.90
7738;DHT22;29398;45.328;5.558;2023-11-19T02:16:50;7.90;99.90
7738;DHT22;29398;45.328;5.558;2023-11-19T02:17:51;7.90;99.90
7738;DHT22;29398;45.328;5.558;2023-11-19T02:18:53;7.90;99.90
7738;DHT22;29398;45.328;5.558;2023-11-19T02:19:54;7.90;99.90
7738;DHT22;29398;45.328;5.558;2023-11-19T02:20:56;7.90;99.90
7738;DHT22;29398;45.328;5.558;2023-11-19T02:21:58;7.90;99.90
7738;DHT22;29398;45.328;5.558;2023-11-19T02:23:00;7.80;99.90
7738;DHT22;29398;45.328;5.558;2023-11-19T02:24:05;7.80;99.90
7738;DHT22;29398;45.328;5.558;2023-11-19T02:25:24;7.80;99.90
7738;DHT22;29398;45.328;5.558;2023-11-19T02:26:28;7.80;99.90
7738;DHT22;29398;45.328;5.558;2023-11-19T02:27:44;7.80;99.90
7738;DHT22;29398;45.328;5.558;2023-11-19T02:28:45;7.80;99.90
7738;DHT22;29398;45.328;5.558;2023-11-19T02:29:48;7.80;99.90
7738;DHT22;29398;45.328;5.558;2023-11-19T02:30:49;7.80;99.90
7738;DHT22;29398;45.328;5.558;2023-11-19T02:31:50;7.80;99.90
7738;DHT22;29398;45.328;5.558;2023-11-19T02:32:52;7.80;99.90
7738;DHT22;29398;45.328;5.558;2023-11-19T02:33:54;7.80;99.90
7738;DHT22;29398;45.328;5.558;2023-11-19T02:35:00;7.80;99.90
7738;DHT22;29398;45.328;5.558;2023-11-19T02:36:02;7.80;99.90
7738;DHT22;29398;45.328;5.558;2023-11-19T02:37:04;7.80;99.90
7738;DHT22;29398;45.328;5.558;2023-11-19T02:38:06;7.80;99.90
7738;DHT22;29398;45.328;5.558;2023-11-19T02:39:08;7.80;99.90
7738;DHT22;29398;45.328;5.558;2023-11-19T02:40:13;7.80;99.90
7738;DHT22;29398;45.328;5.558;2023-11-19T02:41:14;7.80;99.90
7738;DHT22;29398;45.328;5.558;2023-11-19T02:42:16;7.80;99.90
7738;DHT22;29398;45.328;5.558;2023-11-19T02:43:19;7.80;99.90
7738;DHT22;29398;45.328;5.558;2023-11-19T02:44:21;7.70;99.90
7738;DHT22;29398;45.328;5.558;2023-11-19T02:45:22;7.70;99.90
7738;DHT22;29398;45.328;5.558;2023-11-19T02:46:24;7.70;99.90
7738;DHT22;29398;45.328;5.558;2023-11-19T02:47:25;7.70;99.90
7738;DHT22;29398;45.328;5.558;2023-11-19T02:48:31;7.60;99.90
7738;DHT22;29398;45.328;5.558;2023-11-19T02:49:32;7.60;99.90
7738;DHT22;29398;45.328;5.558;2023-11-19T02:50:34;7.60;99.90
7738;DHT22;29398;45.328;5.558;2023-11-19T02:51:35;7.60;99.90
7738;DHT22;29398;45.328;5.558;2023-11-19T02:52:37;7.60;99.90
7738;DHT22;29398;45.328;5.558;2023-11-19T02:53:38;7.60;99.90
7738;DHT22;29398;45.328;5.558;2023-11-19T02:54:41;7.60;99.90
7738;DHT22;29398;45.328;5.558;2023-11-19T02:55:42;7.60;99.90
7738;DHT22;29398;45.328;5.558;2023-11-19T02:56:49;7.60;99.90
7738;DHT22;29398;45.328;5.558;2023-11-19T02:57:56;7.60;99.90
7738;DHT22;29398;45.328;5.558;2023-11-19T02:59:01;7.60;99.90
7738;DHT22;29398;45.328;5.558;2023-11-19T03:00:09;7.60;99.90
7738;DHT22;29398;45.328;5.558;2023-11-19T03:01:13;7.60;99.90
7738;DHT22;29398;45.328;5.558;2023-11-19T03:02:23;7.60;99.90
7738;DHT22;29398;45.328;5.558;2023-11-19T03:03:34;7.60;99.90
7738;DHT22;29398;45.328;5.558;2023-11-19T03:04:39;7.60;99.90
7738;DHT22;29398;45.328;5.558;2023-11-19T03:05:40;7.60;99.90
7738;DHT22;29398;45.328;5.558;2023-11-19T03:06:42;7.60;99.90
7738;DHT22;29398;45.328;5.558;2023-11-19T03:07:43;7.60;99.90
7738;DHT22;29398;45.328;5.558;2023-11-19T03:08:46;7.60;99.90
7738;DHT22;29398;45.328;5.558;2023-11-19T03:09:47;7.50;99.90
7738;DHT22;29398;45.328;5.558;2023-11-19T03:10:50;7.50;99.90
7738;DHT22;29398;45.328;5.558;2023-11-19T03:11:51;7.50;99.90
7738;DHT22;29398;45.328;5.558;2023-11-19T03:12:53;7.50;99.90
7738;DHT22;29398;45.328;5.558;2023-11-19T03:13:56;7.50;99.90
7738;DHT22;29398;45.328;5.558;2023-11-19T03:14:59;7.50;99.90
7738;DHT22;29398;45.328;5.558;2023-11-19T03:16:00;7.50;99.90
7738;DHT22;29398;45.328;5.558;2023-11-19T03:17:02;7.50;99.90
7738;DHT22;29398;45.328;5.558;2023-11-19T03:18:04;7.50;99.90
7738;DHT22;29398;45.328;5.558;2023-11-19T03:19:05;7.50;99.90
7738;DHT22;29398;45.328;5.558;2023-11-19T03:20:10;7.50;99.90
7738;DHT22;29398;45.328;5.558;2023-11-19T03:21:11;7.50;99.90
7738;DHT22;29398;45.328;5.558;2023-11-19T03:22:14;7.50;99.90
7738;DHT22;29398;45.328;5.558;2023-11-19T03:23:15;7.50;99.90
7738;DHT22;29398;45.328;5.558;2023-11-19T03:24:16;7.50;99.90
7738;DHT22;29398;45.328;5.558;2023-11-19T03:25:18;7.50;99.90
7738;DHT22;29398;45.328;5.558;2023-11-19T03:26:19;7.50;99.90
7738;DHT22;29398;45.328;5.558;2023-11-19T03:27:21;7.50;99.90
7738;DHT22;29398;45.328;5.558;2023-11-19T03:28:22;7.50;99.90
7738;DHT22;29398;45.328;5.558;2023-11-19T03:29:24;7.50;99.90
7738;DHT22;29398;45.328;5.558;2023-11-19T03:30:28;7.50;99.90
7738;DHT22;29398;45.328;5.558;2023-11-19T03:31:31;7.40;99.90
7738;DHT22;29398;45.328;5.558;2023-11-19T03:32:32;7.50;99.90
7738;DHT22;29398;45.328;5.558;2023-11-19T03:34:38;7.50;99.90
7738;DHT22;29398;45.328;5.558;2023-11-19T03:35:40;7.50;99.90
7738;DHT22;29398;45.328;5.558;2023-11-19T03:36:41;7.50;99.90
7738;DHT22;29398;45.328;5.558;2023-11-19T03:37:45;7.50;99.90
7738;DHT22;29398;45.328;5.558;2023-11-19T03:38:47;7.50;99.90
7738;DHT22;29398;45.328;5.558;2023-11-19T03:39:49;7.60;99.90
7738;DHT22;29398;45.328;5.558;2023-11-19T03:40:50;7.60;99.90
7738;DHT22;29398;45.328;5.558;2023-11-19T03:41:53;7.60;99.90
7738;DHT22;29398;45.328;5.558;2023-11-19T03:42:55;7.60;99.90
7738;DHT22;29398;45.328;5.558;2023-11-19T03:43:57;7.60;99.90
7738;DHT22;29398;45.328;5.558;2023-11-19T03:44:59;7.60;99.90
7738;DHT22;29398;45.328;5.558;2023-11-19T03:46:02;7.60;99.90
7738;DHT22;29398;45.328;5.558;2023-11-19T03:47:05;7.60;99.90
7738;DHT22;29398;45.328;5.558;2023-11-19T03:48:07;7.60;99.90
7738;DHT22;29398;45.328;5.558;2023-11-19T03:49:09;7.60;99.90
7738;DHT22;29398;45.328;5.558;2023-11-19T03:50:11;7.60;99.90
7738;DHT22;29398;45.328;5.558;2023-11-19T03:51:13;7.60;99.90
7738;DHT22;29398;45.328;5.558;2023-11-19T03:52:16;7.60;99.90
7738;DHT22;29398;45.328;5.558;2023-11-19T03:53:18;7.60;99.90
7738;DHT22;29398;45.328;5.558;2023-11-19T03:54:19;7.60;99.90
7738;DHT22;29398;45.328;5.558;2023-11-19T03:55:23;7.60;99.90
7738;DHT22;29398;45.328;5.558;2023-11-19T03:56:24;7.60;99.90
7738;DHT22;29398;45.328;5.558;2023-11-19T03:57:27;7.60;99.90
7738;DHT22;29398;45.328;5.558;2023-11-19T03:58:28;7.60;99.90
7738;DHT22;29398;45.328;5.558;2023-11-19T03:59:30;7.50;99.90
7738;DHT22;29398;45.328;5.558;2023-11-19T04:00:32;7.50;99.90
7738;DHT22;29398;45.328;5.558;2023-11-19T04:01:36;7.50;99.90
7738;DHT22;29398;45.328;5.558;2023-11-19T04:02:38;7.50;99.90
7738;DHT22;29398;45.328;5.558;2023-11-19T04:03:40;7.50;99.90
7738;DHT22;29398;45.328;5.558;2023-11-19T04:04:41;7.50;99.90
7738;DHT22;29398;45.328;5.558;2023-11-19T04:05:43;7.50;99.90
7738;DHT22;29398;45.328;5.558;2023-11-19T04:06:44;7.50;99.90
7738;DHT22;29398;45.328;5.558;2023-11-19T04:07:46;7.50;99.90
7738;DHT22;29398;45.328;5.558;2023-11-19T04:08:47;7.50;99.90
7738;DHT22;29398;45.328;5.558;2023-11-19T04:09:50;7.50;99.90
7738;DHT22;29398;45.328;5.558;2023-11-19T04:10:51;7.50;99.90
7738;DHT22;29398;45.328;5.558;2023-11-19T04:11:53;7.50;99.90
7738;DHT22;29398;45.328;5.558;2023-11-19T04:12:54;7.50;99.90
7738;DHT22;29398;45.328;5.558;2023-11-19T04:13:55;7.50;99.90
7738;DHT22;29398;45.328;5.558;2023-11-19T04:14:57;7.50;99.90
7738;DHT22;29398;45.328;5.558;2023-11-19T04:15:59;7.50;99.90
7738;DHT22;29398;45.328;5.558;2023-11-19T04:17:02;7.50;99.90
7738;DHT22;29398;45.328;5.558;2023-11-19T04:18:04;7.50;99.90
7738;DHT22;29398;45.328;5.558;2023-11-19T04:19:06;7.50;99.90
7738;DHT22;29398;45.328;5.558;2023-11-19T04:20:07;7.50;99.90
7738;DHT22;29398;45.328;5.558;2023-11-19T04:21:13;7.50;99.90
7738;DHT22;29398;45.328;5.558;2023-11-19T04:22:14;7.50;99.90
7738;DHT22;29398;45.328;5.558;2023-11-19T04:23:15;7.50;99.90
7738;DHT22;29398;45.328;5.558;2023-11-19T04:24:17;7.50;99.90
7738;DHT22;29398;45.328;5.558;2023-11-19T04:25:18;7.50;99.90
7738;DHT22;29398;45.328;5.558;2023-11-19T04:26:20;7.50;99.90
7738;DHT22;29398;45.328;5.558;2023-11-19T04:27:21;7.50;99.90
7738;DHT22;29398;45.328;5.558;2023-11-19T04:28:22;7.50;99.90
7738;DHT22;29398;45.328;5.558;2023-11-19T04:29:24;7.50;99.90
7738;DHT22;29398;45.328;5.558;2023-11-19T04:30:26;7.40;99.90
7738;DHT22;29398;45.328;5.558;2023-11-19T04:31:29;7.40;99.90
7738;DHT22;29398;45.328;5.558;2023-11-19T04:32:33;7.40;99.90
7738;DHT22;29398;45.328;5.558;2023-11-19T04:33:35;7.40;99.90
7738;DHT22;29398;45.328;5.558;2023-11-19T04:34:36;7.40;99.90
7738;DHT22;29398;45.328;5.558;2023-11-19T04:35:38;7.40;99.90
7738;DHT22;29398;45.328;5.558;2023-11-19T04:36:39;7.40;99.90
7738;DHT22;29398;45.328;5.558;2023-11-19T04:37:41;7.30;99.90
7738;DHT22;29398;45.328;5.558;2023-11-19T04:38:43;7.30;99.90
7738;DHT22;29398;45.328;5.558;2023-11-19T04:39:45;7.30;99.90
7738;DHT22;29398;45.328;5.558;2023-11-19T04:40:47;7.40;99.90
7738;DHT22;29398;45.328;5.558;2023-11-19T04:41:48;7.40;99.90
7738;DHT22;29398;45.328;5.558;2023-11-19T04:42:50;7.40;99.90
7738;DHT22;29398;45.328;5.558;2023-11-19T04:43:51;7.40;99.90
7738;DHT22;29398;45.328;5.558;2023-11-19T04:44:53;7.40;99.90
7738;DHT22;29398;45.328;5.558;2023-11-19T04:45:54;7.40;99.90
7738;DHT22;29398;45.328;5.558;2023-11-19T04:46:55;7.40;99.90
7738;DHT22;29398;45.328;5.558;2023-11-19T04:47:59;7.40;99.90
7738;DHT22;29398;45.328;5.558;2023-11-19T04:49:00;7.40;99.90
7738;DHT22;29398;45.328;5.558;2023-11-19T04:50:02;7.40;99.90
7738;DHT22;29398;45.328;5.558;2023-11-19T04:51:05;7.40;99.90
7738;DHT22;29398;45.328;5.558;2023-11-19T04:52:07;7.40;99.90
7738;DHT22;29398;45.328;5.558;2023-11-19T04:53:08;7.40;99.90
7738;DHT22;29398;45.328;5.558;2023-11-19T04:54:10;7.40;99.90
7738;DHT22;29398;45.328;5.558;2023-11-19T04:55:12;7.40;99.90
7738;DHT22;29398;45.328;5.558;2023-11-19T04:56:15;7.40;99.90
7738;DHT22;29398;45.328;5.558;2023-11-19T04:57:17;7.40;99.90
7738;DHT22;29398;45.328;5.558;2023-11-19T04:58:19;7.40;99.90
7738;DHT22;29398;45.328;5.558;2023-11-19T04:59:20;7.40;99.90
7738;DHT22;29398;45.328;5.558;2023-11-19T05:00:22;7.50;99.90
7738;DHT22;29398;45.328;5.558;2023-11-19T05:01:23;7.50;99.90
7738;DHT22;29398;45.328;5.558;2023-11-19T05:02:24;7.50;99.90
7738;DHT22;29398;45.328;5.558;2023-11-19T05:03:27;7.50;99.90
7738;DHT22;29398;45.328;5.558;2023-11-19T05:04:29;7.50;99.90
7738;DHT22;29398;45.328;5.558;2023-11-19T05:05:31;7.50;99.90
7738;DHT22;29398;45.328;5.558;2023-11-19T05:06:32;7.50;99.90
7738;DHT22;29398;45.328;5.558;2023-11-19T05:07:33;7.40;99.90
7738;DHT22;29398;45.328;5.558;2023-11-19T05:08:35;7.50;99.90
7738;DHT22;29398;45.328;5.558;2023-11-19T05:09:36;7.50;99.90
7738;DHT22;29398;45.328;5.558;2023-11-19T05:10:38;7.50;99.90
7738;DHT22;29398;45.328;5.558;2023-11-19T05:11:39;7.40;99.90
7738;DHT22;29398;45.328;5.558;2023-11-19T05:12:42;7.40;99.90
7738;DHT22;29398;45.328;5.558;2023-11-19T05:13:43;7.50;99.90
7738;DHT22;29398;45.328;5.558;2023-11-19T05:14:46;7.40;99.90
7738;DHT22;29398;45.328;5.558;2023-11-19T05:15:50;7.40;99.90
7738;DHT22;29398;45.328;5.558;2023-11-19T05:16:52;7.40;99.90
7738;DHT22;29398;45.328;5.558;2023-11-19T05:17:54;7.40;99.90
7738;DHT22;29398;45.328;5.558;2023-11-19T05:18:57;7.40;99.90
7738;DHT22;29398;45.328;5.558;2023-11-19T05:19:58;7.40;99.90
7738;DHT22;29398;45.328;5.558;2023-11-19T05:21:00;7.40;99.90
7738;DHT22;29398;45.328;5.558;2023-11-19T05:22:01;7.40;99.90
7738;DHT22;29398;45.328;5.558;2023-11-19T05:23:03;7.30;99.90
7738;DHT22;29398;45.328;5.558;2023-11-19T05:24:04;7.30;99.90
7738;DHT22;29398;45.328;5.558;2023-11-19T05:25:07;7.30;99.90
7738;DHT22;29398;45.328;5.558;2023-11-19T05:26:09;7.30;99.90
7738;DHT22;29398;45.328;5.558;2023-11-19T05:27:12;7.30;99.90
7738;DHT22;29398;45.328;5.558;2023-11-19T05:28:14;7.20;99.90
7738;DHT22;29398;45.328;5.558;2023-11-19T05:29:16;7.20;99.90
7738;DHT22;29398;45.328;5.558;2023-11-19T05:30:17;7.30;99.90
7738;DHT22;29398;45.328;5.558;2023-11-19T05:31:19;7.30;99.90
7738;DHT22;29398;45.328;5.558;2023-11-19T05:32:20;7.30;99.90
7738;DHT22;29398;45.328;5.558;2023-11-19T05:33:22;7.30;99.90
7738;DHT22;29398;45.328;5.558;2023-11-19T05:34:24;7.30;99.90
7738;DHT22;29398;45.328;5.558;2023-11-19T05:35:27;7.80;99.90
7738;DHT22;29398;45.328;5.558;2023-11-19T05:36:28;7.10;99.90
7738;DHT22;29398;45.328;5.558;2023-11-19T05:37:30;7.00;99.90
7738;DHT22;29398;45.328;5.558;2023-11-19T05:38:31;7.00;99.90
7738;DHT22;29398;45.328;5.558;2023-11-19T05:39:34;6.90;99.90
7738;DHT22;29398;45.328;5.558;2023-11-19T05:40:35;6.90;99.90
7738;DHT22;29398;45.328;5.558;2023-11-19T05:41:37;6.80;99.90
7738;DHT22;29398;45.328;5.558;2023-11-19T05:42:38;6.80;99.90
7738;DHT22;29398;45.328;5.558;2023-11-19T05:43:39;5.30;99.90
7738;DHT22;29398;45.328;5.558;2023-11-19T05:44:42;6.70;99.90
7738;DHT22;29398;45.328;5.558;2023-11-19T05:45:43;6.70;99.90
7738;DHT22;29398;45.328;5.558;2023-11-19T05:46:44;6.60;99.90
7738;DHT22;29398;45.328;5.558;2023-11-19T05:47:46;6.60;99.90
7738;DHT22;29398;45.328;5.558;2023-11-19T05:48:47;6.60;99.90
7738;DHT22;29398;45.328;5.558;2023-11-19T05:49:51;6.60;99.90
7738;DHT22;29398;45.328;5.558;2023-11-19T05:50:52;6.60;99.90
7738;DHT22;29398;45.328;5.558;2023-11-19T05:51:54;6.70;99.90
7738;DHT22;29398;45.328;5.558;2023-11-19T05:52:56;6.70;99.90
7738;DHT22;29398;45.328;5.558;2023-11-19T05:53:58;6.70;99.90
7738;DHT22;29398;45.328;5.558;2023-11-19T05:55:00;6.70;99.90
7738;DHT22;29398;45.328;5.558;2023-11-19T05:56:05;6.60;99.90
7738;DHT22;29398;45.328;5.558;2023-11-19T05:57:08;6.70;99.90
7738;DHT22;29398;45.328;5.558;2023-11-19T05:58:10;6.70;99.90
7738;DHT22;29398;45.328;5.558;2023-11-19T05:59:13;6.70;99.90
7738;DHT22;29398;45.328;5.558;2023-11-19T06:00:18;6.80;99.90
7738;DHT22;29398;45.328;5.558;2023-11-19T06:01:19;6.80;99.90
7738;DHT22;29398;45.328;5.558;2023-11-19T06:02:21;6.80;99.90
7738;DHT22;29398;45.328;5.558;2023-11-19T06:03:22;6.80;99.90
7738;DHT22;29398;45.328;5.558;2023-11-19T06:04:23;6.80;99.90
7738;DHT22;29398;45.328;5.558;2023-11-19T06:05:27;6.80;99.90
7738;DHT22;29398;45.328;5.558;2023-11-19T06:06:28;6.80;99.90
7738;DHT22;29398;45.328;5.558;2023-11-19T06:07:30;6.80;99.90
7738;DHT22;29398;45.328;5.558;2023-11-19T06:08:31;6.70;99.90
7738;DHT22;29398;45.328;5.558;2023-11-19T06:09:34;6.70;99.90
7738;DHT22;29398;45.328;5.558;2023-11-19T06:10:35;6.70;99.90
7738;DHT22;29398;45.328;5.558;2023-11-19T06:11:37;6.70;99.90
7738;DHT22;29398;45.328;5.558;2023-11-19T06:12:38;6.70;99.90
7738;DHT22;29398;45.328;5.558;2023-11-19T06:13:41;6.70;99.90
7738;DHT22;29398;45.328;5.558;2023-11-19T06:14:43;6.70;99.90
7738;DHT22;29398;45.328;5.558;2023-11-19T06:15:44;6.70;99.90
7738;DHT22;29398;45.328;5.558;2023-11-19T06:16:46;6.70;99.90
7738;DHT22;29398;45.328;5.558;2023-11-19T06:17:47;6.70;99.90
7738;DHT22;29398;45.328;5.558;2023-11-19T06:18:49;6.70;99.90
7738;DHT22;29398;45.328;5.558;2023-11-19T06:19:50;6.70;99.90
7738;DHT22;29398;45.328;5.558;2023-11-19T06:20:54;6.70;99.90
7738;DHT22;29398;45.328;5.558;2023-11-19T06:21:55;6.70;99.90
7738;DHT22;29398;45.328;5.558;2023-11-19T06:22:57;6.70;99.90
7738;DHT22;29398;45.328;5.558;2023-11-19T06:23:58;6.70;99.90
7738;DHT22;29398;45.328;5.558;2023-11-19T06:25:01;6.70;99.90
7738;DHT22;29398;45.328;5.558;2023-11-19T06:26:02;6.80;99.90
7738;DHT22;29398;45.328;5.558;2023-11-19T06:27:04;6.80;99.90
7738;DHT22;29398;45.328;5.558;2023-11-19T06:28:05;6.80;99.90
7738;DHT22;29398;45.328;5.558;2023-11-19T06:29:07;6.80;99.90
7738;DHT22;29398;45.328;5.558;2023-11-19T06:30:09;6.80;99.90
7738;DHT22;29398;45.328;5.558;2023-11-19T06:31:12;6.80;99.90
7738;DHT22;29398;45.328;5.558;2023-11-19T06:32:14;6.80;99.90
7738;DHT22;29398;45.328;5.558;2023-11-19T06:33:17;6.80;99.90
7738;DHT22;29398;45.328;5.558;2023-11-19T06:34:18;6.80;99.90
7738;DHT22;29398;45.328;5.558;2023-11-19T06:35:20;6.80;99.90
7738;DHT22;29398;45.328;5.558;2023-11-19T06:36:22;6.80;99.90
7738;DHT22;29398;45.328;5.558;2023-11-19T06:37:24;6.80;99.90
7738;DHT22;29398;45.328;5.558;2023-11-19T06:38:25;6.80;99.90
7738;DHT22;29398;45.328;5.558;2023-11-19T06:39:27;6.80;99.90
7738;DHT22;29398;45.328;5.558;2023-11-19T06:40:28;6.80;99.90
7738;DHT22;29398;45.328;5.558;2023-11-19T06:41:30;6.80;99.90
7738;DHT22;29398;45.328;5.558;2023-11-19T06:42:32;6.80;99.90
7738;DHT22;29398;45.328;5.558;2023-11-19T06:43:33;6.80;99.90
7738;DHT22;29398;45.328;5.558;2023-11-19T06:44:35;6.70;99.90
7738;DHT22;29398;45.328;5.558;2023-11-19T06:45:36;6.70;99.90
7738;DHT22;29398;45.328;5.558;2023-11-19T06:46:38;6.60;99.90